Time;durP1;ratioP1;P1;durP2;ratioP2;P2;SDS_P1;SDS_P2;PMS_P1;PMS_P2;Temp;Humidity;BMP_temperature;BMP_pressure;BME280_temperature;BME280_humidity;BME280_pressure;Samples;Min_cycle;Max_cycle;Signal;HPM_P1;HPM_P2
2023/06/20 00:02:32;;;;;;;13.15;10.02;;;;;;;;;;4803645;29;20037;-85
2023/06/20 00:05:08;;;;;;;11.98;9.98;;;;;;;;;;4779841;29;20076;-85
2023/06/20 00:07:40;;;;;;;12.95;10.23;;;;;;;;;;4781156;29;20057;-86
2023/06/20 00:10:08;;;;;;;11.98;9.85;;;;;;;;;;4775887;29;20152;-86
2023/06/20 00:12:39;;;;;;;11.25;9.55;;;;;;;;;;4806088;29;20052;-85
2023/06/20 00:15:10;;;;;;;10.55;9.27;;;;;;;;;;4781284;29;20413;-85
2023/06/20 00:17:45;;;;;;;14.80;11.20;;;;;;;;;;4798865;29;20466;-85
2023/06/20 00:20:22;;;;;;;14.43;10.32;;;;;;;;;;4788154;29;20065;-85
2023/06/20 00:22:56;;;;;;;11.75;9.73;;;;;;;;;;4782303;29;20061;-86
2023/06/20 00:25:45;;;;;;;12.07;9.95;;;;;;;;;;4798866;29;20053;-86
2023/06/20 00:28:17;;;;;;;12.43;10.77;;;;;;;;;;4808838;29;20109;-85
2023/06/20 00:30:59;;;;;;;12.18;10.93;;;;;;;;;;4773282;29;20473;-85
2023/06/20 00:33:36;;;;;;;12.65;11.27;;;;;;;;;;4797375;29;20042;-85
2023/06/20 00:36:27;;;;;;;15.43;11.13;;;;;;;;;;4783770;29;20081;-85
2023/06/20 00:38:54;;;;;;;12.15;10.85;;;;;;;;;;4785232;29;20057;-85
2023/06/20 00:41:34;;;;;;;12.65;10.95;;;;;;;;;;4786119;29;20057;-86
2023/06/20 00:44:04;;;;;;;16.38;11.82;;;;;;;;;;4803529;29;20381;-85
2023/06/20 00:46:37;;;;;;;17.80;11.70;;;;;;;;;;4798708;29;20054;-86
2023/06/20 00:49:27;;;;;;;13.45;10.30;;;;;;;;;;4811084;29;20065;-85
2023/06/20 00:52:40;;;;;;;13.10;9.98;;;;;;;;;;4791327;29;21311;-86
2023/06/20 00:55:15;;;;;;;14.10;10.70;;;;;;;;;;4778446;29;20084;-86
2023/06/20 00:57:44;;;;;;;17.42;12.57;;;;;;;;;;4795714;29;20046;-86
2023/06/20 01:00:13;;;;;;;12.88;11.27;;;;;;;;;;4798259;29;20051;-85
2023/06/20 01:02:52;;;;;;;14.35;11.50;;;;;;;;;;4798877;29;20054;-86
2023/06/20 01:05:27;;;;;;;14.75;11.43;;;;;;;;;;4801938;29;20062;-86
2023/06/20 01:08:44;;;;;;;12.80;10.80;;;;;;;;;;4799050;29;20180;-86
2023/06/20 01:11:38;;;;;;;13.63;11.52;;;;;;;;;;4807607;29;20057;-85
2023/06/20 01:14:31;;;;;;;12.98;11.13;;;;;;;;;;4814597;29;20045;-85
2023/06/20 01:17:09;;;;;;;14.70;11.48;;;;;;;;;;4805392;29;20125;-86
2023/06/20 01:23:01;;;;;;;12.88;11.55;;;;;;;;;;4810430;29;20992;-85
2023/06/20 01:25:59;;;;;;;18.35;13.55;;;;;;;;;;4817222;29;20461;-86
2023/06/20 01:28:35;;;;;;;;;;;;;;;;;;4801369;29;20081;-85
2023/06/20 01:31:15;;;;;;;29.15;18.95;;;;;;;;;;4781400;29;20695;-86
2023/06/20 01:33:56;;;;;;;19.58;14.15;;;;;;;;;;4786308;29;20062;-86
2023/06/20 01:36:39;;;;;;;17.30;13.02;;;;;;;;;;4794948;29;20042;-85
2023/06/20 01:39:14;;;;;;;15.27;12.40;;;;;;;;;;4774686;29;20138;-85
2023/06/20 01:42:03;;;;;;;14.52;13.02;;;;;;;;;;4792521;29;20078;-86
2023/06/20 01:44:50;;;;;;;17.50;13.13;;;;;;;;;;4773440;29;20146;-86
2023/06/20 01:47:32;;;;;;;15.93;12.30;;;;;;;;;;4789777;29;20074;-86
2023/06/20 01:50:06;;;;;;;15.83;12.77;;;;;;;;;;4770182;29;20060;-86
2023/06/20 01:52:51;;;;;;;16.10;13.20;;;;;;;;;;4771955;29;20372;-85
2023/06/20 01:55:22;;;;;;;14.77;13.27;;;;;;;;;;4780751;29;20046;-86
2023/06/20 01:58:10;;;;;;;16.67;14.25;;;;;;;;;;4754776;29;20058;-86
2023/06/20 02:00:48;;;;;;;16.80;14.25;;;;;;;;;;4793948;29;20042;-86
2023/06/20 02:03:43;;;;;;;16.30;13.93;;;;;;;;;;4782995;29;20114;-86
2023/06/20 02:06:25;;;;;;;19.23;14.13;;;;;;;;;;4799753;29;20053;-86
2023/06/20 02:08:59;;;;;;;16.33;13.77;;;;;;;;;;4793577;29;20058;-85
2023/06/20 02:12:13;;;;;;;19.08;15.10;;;;;;;;;;4774837;29;20414;-85
2023/06/20 02:14:39;;;;;;;15.85;14.23;;;;;;;;;;4784762;29;20219;-86
2023/06/20 02:17:33;;;;;;;17.80;14.52;;;;;;;;;;4794519;29;20050;-86
2023/06/20 02:24:08;;;;;;;17.42;14.48;;;;;;;;;;4796901;29;20055;-86
2023/06/20 02:26:39;;;;;;;16.10;14.30;;;;;;;;;;4789500;29;20053;-85
2023/06/20 02:29:27;;;;;;;18.52;15.27;;;;;;;;;;4791607;29;20133;-85
2023/06/20 02:34:59;;;;;;;18.75;15.07;;;;;;;;;;4806669;29;20042;-86
2023/06/20 02:37:38;;;;;;;19.20;17.30;;;;;;;;;;4806780;29;20790;-86
2023/06/20 02:40:31;;;;;;;22.70;16.95;;;;;;;;;;4809377;29;20360;-86
2023/06/20 02:43:10;;;;;;;;;;;;;;;;;;;;;
2023/06/20 02:45:44;;;;;;;19.55;16.65;;;;;;;;;;4810602;29;20467;-86
2023/06/20 02:48:38;;;;;;;;;;;;;;;;;;;;;
2023/06/20 02:51:40;;;;;;;20.30;17.88;;;;;;;;;;4817403;29;20155;-86
2023/06/20 02:54:15;;;;;;;17.55;15.07;;;;;;;;;;4800658;29;20046;-86
2023/06/20 02:57:44;;;;;;;;;;;;;;;;;;;;;
2023/06/20 03:00:18;;;;;;;;;;;;;;;;;;4824553;29;20057;-86
2023/06/20 03:03:05;;;;;;;20.67;16.52;;;;;;;;;;4805834;29;20236;-86
2023/06/20 03:05:37;;;;;;;17.20;15.40;;;;;;;;;;4806361;29;20054;-86
2023/06/20 03:08:44;;;;;;;21.75;19.35;;;;;;;;;;4785298;29;20783;-86
2023/06/20 03:11:35;;;;;;;20.30;18.05;;;;;;;;;;4766351;29;20043;-86
2023/06/20 03:14:33;;;;;;;24.67;18.08;;;;;;;;;;4778130;29;20052;-86
2023/06/20 03:17:21;;;;;;;;;;;;;;;;;;;;;
2023/06/20 03:19:52;;;;;;;21.23;18.05;;;;;;;;;;4801727;29;20068;-86
2023/06/20 03:22:30;;;;;;;21.10;18.83;;;;;;;;;;4800920;29;20053;-86
2023/06/20 03:25:04;;;;;;;20.02;17.83;;;;;;;;;;4793997;29;20062;-86
2023/06/20 03:27:53;;;;;;;22.00;17.77;;;;;;;;;;4807787;29;20053;-86
2023/06/20 03:30:45;;;;;;;18.67;16.70;;;;;;;;;;4798903;29;20074;-86
2023/06/20 03:33:14;;;;;;;18.90;16.90;;;;;;;;;;4795452;29;20049;-86
2023/06/20 03:36:03;;;;;;;21.02;17.95;;;;;;;;;;4803039;29;20053;-85
2023/06/20 03:52:20;;;;;;;;;;;;;;;;;;;;;
2023/06/20 03:59:18;;;;;;;18.73;16.48;;;;;;;;;;4670316;30;20067;-88
2023/06/20 04:02:59;;;;;;;;;;;;;;;;;;;;;
2023/06/20 04:05:32;;;;;;;20.65;18.38;;;;;;;;;;4648246;30;20704;-87
2023/06/20 04:08:29;;;;;;;;;;;;;;;;;;;;;
2023/06/20 04:17:57;;;;;;;22.58;16.80;;;;;;;;;;5100787;27;1285495;-88
2023/06/20 04:20:23;;;;;;;21.08;17.77;;;;;;;;;;5098676;27;20043;-87
2023/06/20 04:22:49;;;;;;;21.38;17.52;;;;;;;;;;5090069;27;20038;-87
2023/06/20 04:25:15;;;;;;;19.98;17.88;;;;;;;;;;5095450;27;20069;-87
2023/06/20 04:27:42;;;;;;;22.23;17.25;;;;;;;;;;5070092;27;20425;-87
2023/06/20 04:30:08;;;;;;;19.58;17.17;;;;;;;;;;5076835;27;20042;-87
2023/06/20 04:32:34;;;;;;;21.33;17.15;;;;;;;;;;5072995;27;20834;-87
2023/06/20 04:35:00;;;;;;;18.27;15.75;;;;;;;;;;5104564;27;20038;-88
2023/06/20 04:37:29;;;;;;;20.55;16.98;;;;;;;;;;5077077;27;20038;-88
2023/06/20 04:39:56;;;;;;;18.98;16.17;;;;;;;;;;5089173;27;20038;-88
2023/06/20 04:42:22;;;;;;;18.02;15.95;;;;;;;;;;5088088;27;20105;-88
2023/06/20 04:44:48;;;;;;;16.15;14.45;;;;;;;;;;5094304;27;20385;-88
2023/06/20 04:47:14;;;;;;;15.77;13.98;;;;;;;;;;5094922;27;20062;-87
2023/06/20 04:49:40;;;;;;;16.83;15.02;;;;;;;;;;5094198;27;20042;-88
2023/06/20 04:52:07;;;;;;;18.75;14.50;;;;;;;;;;5063636;27;20561;-88
2023/06/20 04:54:33;;;;;;;17.13;15.18;;;;;;;;;;5086656;27;20046;-88
2023/06/20 04:56:59;;;;;;;15.93;14.30;;;;;;;;;;5082621;27;20096;-87
2023/06/20 04:59:26;;;;;;;17.05;15.05;;;;;;;;;;5104005;27;20027;-88
2023/06/20 05:01:52;;;;;;;16.77;15.10;;;;;;;;;;5086941;27;20100;-88
2023/06/20 05:04:18;;;;;;;19.67;15.60;;;;;;;;;;5095499;27;20034;-87
2023/06/20 05:06:48;;;;;;;20.60;16.77;;;;;;;;;;5089243;27;20408;-87
2023/06/20 05:09:14;;;;;;;18.10;15.52;;;;;;;;;;5092413;27;20050;-87
2023/06/20 05:11:40;;;;;;;16.42;14.68;;;;;;;;;;5072135;27;20087;-87
2023/06/20 05:14:06;;;;;;;28.50;17.52;;;;;;;;;;5080015;27;20043;-87
2023/06/20 05:16:32;;;;;;;17.33;15.52;;;;;;;;;;5106073;27;20074;-87
2023/06/20 05:18:58;;;;;;;17.63;15.35;;;;;;;;;;5104509;27;20468;-87
2023/06/20 05:21:24;;;;;;;15.40;13.77;;;;;;;;;;5123903;27;20115;-87
2023/06/20 05:23:50;;;;;;;16.83;15.05;;;;;;;;;;5086037;27;20074;-87
2023/06/20 05:26:16;;;;;;;16.42;14.13;;;;;;;;;;5104819;27;20045;-87
2023/06/20 05:28:42;;;;;;;15.27;13.68;;;;;;;;;;5094721;27;20046;-87
2023/06/20 05:31:11;;;;;;;19.35;13.57;;;;;;;;;;5079564;28;20130;-87
2023/06/20 05:33:38;;;;;;;16.65;13.55;;;;;;;;;;5068625;27;20547;-87
2023/06/20 05:36:04;;;;;;;15.82;12.80;;;;;;;;;;5095139;27;20581;-87
2023/06/20 05:38:32;;;;;;;14.73;12.90;;;;;;;;;;5084329;27;20058;-87
2023/06/20 05:40:59;;;;;;;15.75;13.88;;;;;;;;;;5060775;27;20375;-87
2023/06/20 05:43:25;;;;;;;15.00;13.50;;;;;;;;;;5063347;27;20035;-87
2023/06/20 05:45:51;;;;;;;14.40;12.68;;;;;;;;;;5056954;27;20531;-86
2023/06/20 05:48:17;;;;;;;14.27;12.77;;;;;;;;;;5079452;27;20592;-86
2023/06/20 05:50:43;;;;;;;14.20;12.80;;;;;;;;;;5092717;27;20035;-87
2023/06/20 05:53:09;;;;;;;13.60;12.18;;;;;;;;;;5078962;27;20044;-87
2023/06/20 05:55:35;;;;;;;13.48;12.18;;;;;;;;;;5081759;27;20032;-86
2023/06/20 05:58:01;;;;;;;13.27;11.38;;;;;;;;;;5056859;27;20039;-87
2023/06/20 06:00:27;;;;;;;15.82;12.40;;;;;;;;;;5087710;27;20031;-87
2023/06/20 06:02:53;;;;;;;13.40;11.75;;;;;;;;;;5090750;27;20039;-87
2023/06/20 06:05:19;;;;;;;13.63;11.73;;;;;;;;;;5088205;28;20070;-87
2023/06/20 06:07:45;;;;;;;12.27;10.73;;;;;;;;;;5069322;27;20503;-87
2023/06/20 06:10:11;;;;;;;12.15;10.85;;;;;;;;;;5097507;27;20147;-87
2023/06/20 06:12:37;;;;;;;13.18;11.15;;;;;;;;;;5078577;27;20046;-87
2023/06/20 06:15:04;;;;;;;14.55;11.43;;;;;;;;;;5065737;27;20104;-87
2023/06/20 06:17:31;;;;;;;15.48;12.57;;;;;;;;;;5075154;27;20093;-87
2023/06/20 06:19:57;;;;;;;13.20;11.80;;;;;;;;;;5077239;27;20039;-87
2023/06/20 06:22:23;;;;;;;14.32;11.43;;;;;;;;;;5076317;27;20077;-87
2023/06/20 06:24:50;;;;;;;15.95;11.77;;;;;;;;;;5073120;27;20417;-87
2023/06/20 06:27:17;;;;;;;13.07;10.90;;;;;;;;;;5083457;27;20081;-88
2023/06/20 06:29:43;;;;;;;11.80;10.60;;;;;;;;;;5068972;27;20108;-87
2023/06/20 06:32:09;;;;;;;12.80;11.57;;;;;;;;;;5080082;27;20039;-87
2023/06/20 06:34:35;;;;;;;13.30;11.63;;;;;;;;;;5082120;27;20078;-87
2023/06/20 06:37:01;;;;;;;13.18;11.07;;;;;;;;;;5058234;27;20092;-87
2023/06/20 06:39:27;;;;;;;12.07;10.88;;;;;;;;;;5082927;28;20104;-87
2023/06/20 06:41:53;;;;;;;11.43;10.23;;;;;;;;;;5056034;27;20142;-87
2023/06/20 06:44:19;;;;;;;11.10;9.82;;;;;;;;;;5099085;27;20080;-87
2023/06/20 06:46:45;;;;;;;11.55;10.45;;;;;;;;;;5062446;27;20042;-87
2023/06/20 06:49:11;;;;;;;12.35;11.15;;;;;;;;;;5087498;27;20043;-87
2023/06/20 06:51:38;;;;;;;12.68;11.38;;;;;;;;;;5088964;28;20706;-87
2023/06/20 06:54:04;;;;;;;13.38;10.80;;;;;;;;;;5059433;27;20036;-87
2023/06/20 06:56:30;;;;;;;11.10;10.00;;;;;;;;;;5102506;27;20035;-87
2023/06/20 06:59:00;;;;;;;13.95;10.63;;;;;;;;;;5056399;27;20040;-87
2023/06/20 07:01:26;;;;;;;11.98;10.55;;;;;;;;;;5080794;27;20043;-87
2023/06/20 07:03:53;;;;;;;11.90;10.35;;;;;;;;;;5056826;27;20043;-87
2023/06/20 07:06:20;;;;;;;11.48;9.93;;;;;;;;;;5062881;27;20042;-87
2023/06/20 07:08:46;;;;;;;11.85;10.07;;;;;;;;;;5061295;27;20039;-87
2023/06/20 07:11:12;;;;;;;12.13;10.75;;;;;;;;;;5091341;27;20047;-87
2023/06/20 07:13:38;;;;;;;11.23;10.05;;;;;;;;;;5118090;27;20035;-88
2023/06/20 07:16:04;;;;;;;11.05;9.88;;;;;;;;;;5101281;27;20066;-87
2023/06/20 07:18:30;;;;;;;12.60;9.48;;;;;;;;;;5102341;27;20047;-87
2023/06/20 07:20:57;;;;;;;12.00;10.80;;;;;;;;;;5053673;27;20034;-87
2023/06/20 07:23:23;;;;;;;11.95;10.77;;;;;;;;;;5083776;27;20035;-87
2023/06/20 07:25:49;;;;;;;16.38;10.70;;;;;;;;;;5080132;27;20050;-88
2023/06/20 07:28:15;;;;;;;11.15;10.13;;;;;;;;;;5076962;27;20096;-88
2023/06/20 07:30:44;;;;;;;12.68;10.88;;;;;;;;;;5077266;27;20057;-87
2023/06/20 07:33:10;;;;;;;11.70;10.18;;;;;;;;;;5074463;27;20469;-87
2023/06/20 07:35:36;;;;;;;11.73;10.52;;;;;;;;;;5081393;27;20035;-87
2023/06/20 07:38:02;;;;;;;11.95;9.30;;;;;;;;;;5077651;27;21269;-87
2023/06/20 07:40:28;;;;;;;21.48;11.20;;;;;;;;;;5064597;27;20043;-87
2023/06/20 07:42:54;;;;;;;12.35;10.88;;;;;;;;;;5056003;27;20445;-87
2023/06/20 07:45:20;;;;;;;13.48;10.50;;;;;;;;;;5077974;27;20364;-87
2023/06/20 07:47:46;;;;;;;13.45;9.68;;;;;;;;;;5098894;27;20140;-87
2023/06/20 07:50:12;;;;;;;12.18;11.00;;;;;;;;;;5076880;27;20035;-87
2023/06/20 07:52:40;;;;;;;12.15;9.55;;;;;;;;;;5081532;27;20031;-87
2023/06/20 07:55:06;;;;;;;16.88;11.48;;;;;;;;;;5087144;27;20031;-87
2023/06/20 07:57:32;;;;;;;15.07;11.60;;;;;;;;;;5079109;28;20050;-87
2023/06/20 07:59:58;;;;;;;12.38;11.07;;;;;;;;;;5057232;27;20035;-87
2023/06/20 08:02:24;;;;;;;15.23;11.02;;;;;;;;;;5080656;27;20046;-88
2023/06/20 08:04:51;;;;;;;12.10;10.90;;;;;;;;;;5078904;27;20057;-88
2023/06/20 08:07:17;;;;;;;11.52;10.32;;;;;;;;;;5072591;28;20042;-87
2023/06/20 08:09:43;;;;;;;13.30;10.77;;;;;;;;;;5057122;27;20028;-87
2023/06/20 08:12:10;;;;;;;12.35;11.05;;;;;;;;;;5070638;27;20035;-86
2023/06/20 08:14:37;;;;;;;15.77;11.00;;;;;;;;;;5074123;28;20402;-86
2023/06/20 08:17:03;;;;;;;12.40;10.82;;;;;;;;;;5084280;27;20070;-87
2023/06/20 08:19:29;;;;;;;12.20;10.70;;;;;;;;;;5054877;27;20050;-87
2023/06/20 08:21:55;;;;;;;13.02;10.68;;;;;;;;;;5066373;27;20150;-87
2023/06/20 08:24:21;;;;;;;12.48;11.18;;;;;;;;;;5058658;28;20441;-88
2023/06/20 08:26:47;;;;;;;12.50;11.07;;;;;;;;;;5095084;27;20055;-88
2023/06/20 08:29:13;;;;;;;12.80;11.50;;;;;;;;;;5061849;28;20048;-88
2023/06/20 08:31:39;;;;;;;12.30;11.00;;;;;;;;;;5065966;28;20042;-88
2023/06/20 08:34:05;;;;;;;11.00;9.93;;;;;;;;;;5089879;27;20043;-88
2023/06/20 08:36:32;;;;;;;10.35;9.40;;;;;;;;;;5078719;28;20054;-87
2023/06/20 08:38:59;;;;;;;12.00;9.90;;;;;;;;;;5073500;28;20533;-88
2023/06/20 08:41:25;;;;;;;10.88;9.77;;;;;;;;;;5059808;28;20031;-87
2023/06/20 08:43:51;;;;;;;11.00;9.88;;;;;;;;;;5063188;28;20043;-88
2023/06/20 08:46:18;;;;;;;11.70;10.50;;;;;;;;;;5073511;28;20043;-88
2023/06/20 08:48:46;;;;;;;10.68;9.35;;;;;;;;;;5061700;28;20514;-89
2023/06/20 08:51:13;;;;;;;11.77;10.30;;;;;;;;;;5060091;28;20046;-87
2023/06/20 08:53:39;;;;;;;13.05;10.70;;;;;;;;;;5068609;28;20478;-88
2023/06/20 08:56:05;;;;;;;9.88;8.80;;;;;;;;;;5094322;28;20043;-88
2023/06/20 08:58:32;;;;;;;9.75;8.85;;;;;;;;;;5062861;28;20031;-88
2023/06/20 09:00:58;;;;;;;9.65;8.07;;;;;;;;;;5075460;27;20036;-88
2023/06/20 09:03:24;;;;;;;8.75;7.90;;;;;;;;;;5098593;27;20050;-88
2023/06/20 09:05:50;;;;;;;10.40;9.35;;;;;;;;;;5088369;27;20049;-88
2023/06/20 09:08:16;;;;;;;11.50;10.32;;;;;;;;;;5123190;27;20432;-88
2023/06/20 09:10:45;;;;;;;10.50;9.00;;;;;;;;;;5080884;27;20046;-87
2023/06/20 09:13:12;;;;;;;9.38;8.45;;;;;;;;;;5085233;28;20528;-88
2023/06/20 09:15:38;;;;;;;10.52;9.45;;;;;;;;;;5086712;27;20114;-88
2023/06/20 09:18:06;;;;;;;9.07;8.18;;;;;;;;;;5047705;28;20132;-88
2023/06/20 09:20:32;;;;;;;;;;;;;;;;;;5081046;28;20044;-88
2023/06/20 09:22:59;;;;;;;10.73;9.73;;;;;;;;;;5051829;28;19920;-88
2023/06/20 09:25:25;;;;;;;9.93;8.98;;;;;;;;;;5075976;28;20101;-88
2023/06/20 09:27:52;;;;;;;9.40;8.60;;;;;;;;;;5062359;28;20044;-88
2023/06/20 09:30:18;;;;;;;9.18;8.38;;;;;;;;;;5075668;28;20546;-88
2023/06/20 09:32:44;;;;;;;9.55;8.65;;;;;;;;;;5061735;28;20063;-88
2023/06/20 09:35:11;;;;;;;10.32;9.43;;;;;;;;;;5100191;28;20365;-88
2023/06/20 09:37:37;;;;;;;9.90;9.00;;;;;;;;;;5080837;28;20429;-88
2023/06/20 09:40:22;;;;;;;7.95;7.30;;;;;;;;;;5075662;28;20051;-88
2023/06/20 09:42:48;;;;;;;8.73;7.85;;;;;;;;;;5076917;28;20039;-88
2023/06/20 09:45:14;;;;;;;7.72;6.85;;;;;;;;;;5074653;28;20136;-88
2023/06/20 09:47:44;;;;;;;8.68;6.95;;;;;;;;;;5056951;28;20375;-88
2023/06/20 09:50:13;;;;;;;8.32;6.80;;;;;;;;;;5060527;28;20043;-88
2023/06/20 09:52:53;;;;;;;7.68;6.97;;;;;;;;;;5077954;28;20045;-87
2023/06/20 09:55:19;;;;;;;7.53;6.70;;;;;;;;;;5052200;28;20044;-88
2023/06/20 09:57:50;;;;;;;8.02;7.22;;;;;;;;;;5051439;28;20078;-88
2023/06/20 10:00:17;;;;;;;8.90;7.88;;;;;;;;;;5063060;28;20036;-88
2023/06/20 10:02:46;;;;;;;8.13;7.30;;;;;;;;;;5054530;28;20027;-88
2023/06/20 10:05:16;;;;;;;7.85;7.20;;;;;;;;;;5074958;28;20391;-88
2023/06/20 10:07:45;;;;;;;11.18;7.18;;;;;;;;;;5058298;28;20514;-88
2023/06/20 10:10:12;;;;;;;7.50;6.80;;;;;;;;;;5078098;28;20490;-88
2023/06/20 10:12:39;;;;;;;7.82;6.82;;;;;;;;;;5074300;28;20032;-88
2023/06/20 10:15:07;;;;;;;7.78;6.68;;;;;;;;;;5076884;28;20108;-88
2023/06/20 10:17:34;;;;;;;;;;;;;;;;;;5072341;28;20082;-88
2023/06/20 10:20:01;;;;;;;6.25;5.75;;;;;;;;;;5081596;28;19920;-88
2023/06/20 10:22:36;;;;;;;7.55;6.85;;;;;;;;;;5095326;28;20035;-88
2023/06/20 10:25:11;;;;;;;6.68;6.03;;;;;;;;;;5093313;28;20077;-88
2023/06/20 10:27:37;;;;;;;6.45;5.95;;;;;;;;;;5075738;28;20039;-88
2023/06/20 10:30:05;;;;;;;6.90;6.20;;;;;;;;;;5060337;28;20104;-88
2023/06/20 10:32:31;;;;;;;5.25;4.80;;;;;;;;;;5060830;28;20040;-89
2023/06/20 10:34:58;;;;;;;5.70;5.30;;;;;;;;;;5061691;28;20063;-88
2023/06/20 10:37:27;;;;;;;5.95;5.55;;;;;;;;;;5063440;28;20463;-88
2023/06/20 10:39:53;;;;;;;5.82;5.28;;;;;;;;;;5090816;28;20036;-88
2023/06/20 10:42:40;;;;;;;9.02;5.18;;;;;;;;;;5082150;28;20032;-88
2023/06/20 10:45:18;;;;;;;7.57;5.30;;;;;;;;;;5097995;28;20031;-88
2023/06/20 10:47:44;;;;;;;6.22;5.55;;;;;;;;;;5090298;28;20116;-88
2023/06/20 10:50:10;;;;;;;6.18;5.68;;;;;;;;;;5061363;28;20182;-88
2023/06/20 10:52:37;;;;;;;7.95;5.63;;;;;;;;;;5094998;28;20122;-89
2023/06/20 10:55:04;;;;;;;6.00;5.47;;;;;;;;;;5079026;28;20043;-89
2023/06/20 10:57:30;;;;;;;6.70;6.07;;;;;;;;;;5076624;28;20514;-88
2023/06/20 10:59:56;;;;;;;5.72;5.20;;;;;;;;;;5091458;28;20465;-88
2023/06/20 11:02:22;;;;;;;7.32;6.05;;;;;;;;;;5092351;28;20506;-88
2023/06/20 11:08:25;;;;;;;6.32;5.72;;;;;;;;;;5083324;28;20049;-89
2023/06/20 11:10:51;;;;;;;6.60;6.00;;;;;;;;;;5059897;28;20054;-88
2023/06/20 11:13:17;;;;;;;7.57;5.45;;;;;;;;;;5063400;28;20031;-88
2023/06/20 11:21:35;;;;;;;5.28;4.72;;;;;;;;;;5822375;22;20048;-86
2023/06/20 11:24:46;;;;;;;6.03;5.43;;;;;;;;;;5019143;28;20052;-85
2023/06/20 11:34:05;;;;;;;5.30;4.90;;;;;;;;;;4936115;28;20593;-85
2023/06/20 11:37:11;;;;;;;5.47;4.38;;;;;;;;;;4945435;28;20050;-85
2023/06/20 11:40:13;;;;;;;4.90;4.53;;;;;;;;;;4963671;28;20077;-85
2023/06/20 11:43:08;;;;;;;5.85;5.35;;;;;;;;;;4946182;28;20046;-85
2023/06/20 11:46:14;;;;;;;5.70;4.95;;;;;;;;;;4953238;28;20065;-86
2023/06/20 11:49:28;;;;;;;6.60;5.10;;;;;;;;;;4946837;28;20157;-86
2023/06/20 11:55:42;;;;;;;7.00;5.65;;;;;;;;;;4893863;29;20086;-86
2023/06/20 12:01:47;;;;;;;5.90;5.13;;;;;;;;;;5218029;22;20136;-86
2023/06/20 12:21:04;;;;;;;6.15;5.32;;;;;;;;;;4863928;29;21405;-87
2023/06/20 12:30:37;;;;;;;;;;;;;;;;;;;;;
2023/06/20 12:33:09;;;;;;;5.07;4.72;;;;;;;;;;4950537;28;20050;-87
2023/06/20 12:41:21;;;;;;;6.25;5.70;;;;;;;;;;5035053;23;20070;-86
2023/06/20 12:50:27;;;;;;;6.15;5.00;;;;;;;;;;5652738;23;20391;-87
2023/06/20 12:52:53;;;;;;;6.25;5.70;;;;;;;;;;4900536;28;20402;-87
2023/06/20 12:55:20;;;;;;;6.50;4.82;;;;;;;;;;4893743;29;20070;-86
2023/06/20 12:57:46;;;;;;;5.13;4.72;;;;;;;;;;4896725;28;20043;-86
2023/06/20 13:00:13;;;;;;;5.40;4.90;;;;;;;;;;4898093;29;20516;-87
2023/06/20 13:02:40;;;;;;;5.50;5.00;;;;;;;;;;4885745;28;20039;-86
2023/06/20 13:05:08;;;;;;;5.40;4.90;;;;;;;;;;4892314;28;20040;-87
2023/06/20 13:07:35;;;;;;;5.45;4.97;;;;;;;;;;4906978;28;20167;-87
2023/06/20 13:10:01;;;;;;;5.47;5.05;;;;;;;;;;4915774;28;20394;-87
2023/06/20 13:12:27;;;;;;;5.13;4.63;;;;;;;;;;4910932;28;20140;-87
2023/06/20 13:14:53;;;;;;;8.68;5.25;;;;;;;;;;4900723;28;20047;-87
2023/06/20 13:17:19;;;;;;;5.32;4.68;;;;;;;;;;4917291;29;20047;-88
2023/06/20 13:19:45;;;;;;;6.38;5.07;;;;;;;;;;4907876;28;20389;-87
2023/06/20 13:22:12;;;;;;;6.40;5.80;;;;;;;;;;4914602;28;20431;-86
2023/06/20 13:24:41;;;;;;;6.10;5.60;;;;;;;;;;4911481;29;20062;-87
2023/06/20 13:27:08;;;;;;;6.80;6.22;;;;;;;;;;4900558;28;20466;-87
2023/06/20 13:29:34;;;;;;;6.50;5.90;;;;;;;;;;4913334;28;20034;-86
2023/06/20 13:32:00;;;;;;;6.40;5.80;;;;;;;;;;4915726;28;20089;-87
2023/06/20 13:34:26;;;;;;;6.55;5.90;;;;;;;;;;4899083;29;20046;-86
2023/06/20 13:36:52;;;;;;;7.38;6.68;;;;;;;;;;4912933;28;20134;-86
2023/06/20 13:39:19;;;;;;;7.13;6.40;;;;;;;;;;4920625;28;20077;-86
2023/06/20 13:41:45;;;;;;;7.20;6.47;;;;;;;;;;4917051;29;20078;-87
2023/06/20 13:44:11;;;;;;;7.97;7.28;;;;;;;;;;4923981;28;20039;-87
2023/06/20 13:46:37;;;;;;;6.75;6.13;;;;;;;;;;4922663;28;20138;-87
2023/06/20 13:49:04;;;;;;;6.82;6.13;;;;;;;;;;4900940;28;20050;-87
2023/06/20 13:51:30;;;;;;;7.10;6.40;;;;;;;;;;4911550;28;20183;-87
2023/06/20 13:53:56;;;;;;;6.70;6.20;;;;;;;;;;4927888;28;20043;-87
2023/06/20 13:56:22;;;;;;;6.22;5.63;;;;;;;;;;4920857;28;20049;-87
2023/06/20 13:58:48;;;;;;;6.78;6.28;;;;;;;;;;4904265;28;21689;-87
2023/06/20 14:01:15;;;;;;;5.80;5.30;;;;;;;;;;4918332;28;20485;-86
2023/06/20 14:03:44;;;;;;;5.57;5.07;;;;;;;;;;4930891;28;20073;-87
2023/06/20 14:06:10;;;;;;;6.63;5.43;;;;;;;;;;4909111;28;20052;-88
2023/06/20 14:08:36;;;;;;;5.60;5.20;;;;;;;;;;4927466;28;20051;-88
2023/06/20 14:11:02;;;;;;;6.35;5.85;;;;;;;;;;4896099;28;21538;-87
2023/06/20 14:13:28;;;;;;;5.88;5.47;;;;;;;;;;4917208;28;20047;-87
2023/06/20 14:15:54;;;;;;;6.20;5.80;;;;;;;;;;4926834;28;20040;-87
2023/06/20 14:18:20;;;;;;;6.22;5.63;;;;;;;;;;4908363;28;20479;-87
2023/06/20 14:20:46;;;;;;;6.90;5.50;;;;;;;;;;4889059;28;20047;-86
2023/06/20 14:23:12;;;;;;;6.20;5.70;;;;;;;;;;4920521;28;20413;-87
2023/06/20 14:25:38;;;;;;;7.05;6.45;;;;;;;;;;4903451;28;23892;-87
2023/06/20 14:28:05;;;;;;;6.40;5.50;;;;;;;;;;4906526;28;20699;-87
2023/06/20 14:30:31;;;;;;;6.53;6.03;;;;;;;;;;4891023;28;20170;-86
2023/06/20 14:32:57;;;;;;;7.22;6.72;;;;;;;;;;4904169;28;20043;-87
2023/06/20 14:35:23;;;;;;;7.90;7.25;;;;;;;;;;4906655;28;20186;-87
2023/06/20 14:37:49;;;;;;;7.82;7.22;;;;;;;;;;4903145;28;20035;-87
2023/06/20 14:40:15;;;;;;;7.22;6.68;;;;;;;;;;4919100;29;20398;-87
2023/06/20 14:42:44;;;;;;;7.05;6.28;;;;;;;;;;4900210;28;20039;-87
2023/06/20 14:45:10;;;;;;;5.95;5.55;;;;;;;;;;4889097;28;20042;-87
2023/06/20 14:47:37;;;;;;;6.57;5.75;;;;;;;;;;4917586;29;20123;-87
2023/06/20 14:50:06;;;;;;;6.38;5.82;;;;;;;;;;4917293;28;20067;-86
2023/06/20 14:52:32;;;;;;;5.75;5.32;;;;;;;;;;4907043;28;20194;-87
2023/06/20 14:55:01;;;;;;;5.63;5.22;;;;;;;;;;4911652;28;20126;-86
2023/06/20 14:57:27;;;;;;;7.95;6.05;;;;;;;;;;4906660;29;20051;-87
2023/06/20 14:59:53;;;;;;;5.93;5.38;;;;;;;;;;4888067;28;20049;-87
2023/06/20 15:02:19;;;;;;;5.88;5.38;;;;;;;;;;4930412;28;20126;-87
2023/06/20 15:04:45;;;;;;;6.40;5.80;;;;;;;;;;4897646;28;20099;-87
2023/06/20 15:07:11;;;;;;;6.18;5.78;;;;;;;;;;4888171;29;20127;-87
2023/06/20 15:09:37;;;;;;;5.95;5.55;;;;;;;;;;4896452;29;20126;-88
2023/06/20 15:12:03;;;;;;;6.28;5.88;;;;;;;;;;4896865;28;20054;-87
2023/06/20 15:14:29;;;;;;;5.20;4.80;;;;;;;;;;4903204;29;20046;-87
2023/06/20 15:16:55;;;;;;;5.90;5.15;;;;;;;;;;4914628;28;20087;-87
2023/06/20 15:19:21;;;;;;;6.00;5.50;;;;;;;;;;4890600;28;20040;-87
2023/06/20 15:21:48;;;;;;;6.90;4.85;;;;;;;;;;4900244;28;20031;-86
2023/06/20 15:24:16;;;;;;;5.47;4.88;;;;;;;;;;4890491;29;20494;-88
2023/06/20 15:26:44;;;;;;;5.82;5.35;;;;;;;;;;4903250;28;20063;-87
2023/06/20 15:29:11;;;;;;;6.15;5.65;;;;;;;;;;4911647;28;20490;-86
2023/06/20 15:31:37;;;;;;;6.43;5.93;;;;;;;;;;4916579;28;20058;-88
2023/06/20 15:34:03;;;;;;;7.10;6.50;;;;;;;;;;4905276;28;20086;-87
2023/06/20 15:36:30;;;;;;;7.22;6.70;;;;;;;;;;4914884;28;20039;-87
2023/06/20 15:38:56;;;;;;;7.32;6.82;;;;;;;;;;4907351;28;20075;-86
2023/06/20 15:41:22;;;;;;;7.20;6.70;;;;;;;;;;4930947;28;20035;-87
2023/06/20 15:43:48;;;;;;;7.35;6.65;;;;;;;;;;4926610;28;20047;-87
2023/06/20 15:46:14;;;;;;;6.78;6.18;;;;;;;;;;4933174;28;20047;-87
2023/06/20 15:48:56;;;;;;;6.20;5.70;;;;;;;;;;4934917;28;20074;-88
2023/06/20 15:51:22;;;;;;;6.05;5.57;;;;;;;;;;4925641;28;20094;-88
2023/06/20 15:53:48;;;;;;;6.47;5.97;;;;;;;;;;4873657;29;20047;-87
2023/06/20 15:56:14;;;;;;;6.55;5.95;;;;;;;;;;4894700;29;20693;-88
2023/06/20 15:58:42;;;;;;;6.72;6.10;;;;;;;;;;4893260;29;20369;-87
2023/06/20 16:01:09;;;;;;;6.13;5.72;;;;;;;;;;4882058;29;21698;-88
2023/06/20 16:03:35;;;;;;;6.10;5.60;;;;;;;;;;4908521;29;20039;-88
2023/06/20 16:06:10;;;;;;;5.88;5.38;;;;;;;;;;4909729;29;20126;-87
2023/06/20 16:08:36;;;;;;;6.72;6.07;;;;;;;;;;4891522;29;20062;-88
2023/06/20 16:11:02;;;;;;;6.53;5.80;;;;;;;;;;4870181;29;22076;-87
2023/06/20 16:13:59;;;;;;;;;;;;;;;;;;;;;
2023/06/20 16:16:56;;;;;;;;;;;;;;;;;;;;;
2023/06/20 16:22:49;;;;;;;6.13;5.53;;;;;;;;;;4887420;29;20040;-87
2023/06/20 16:29:32;;;;;;;;;;;;;;;;;;;;;
2023/06/20 16:39:48;;;;;;;6.03;5.50;;;;;;;;;;4697759;30;20068;-87
2023/06/20 16:43:05;;;;;;;;;;;;;;;;;;;;;
2023/06/20 16:45:49;;;;;;;5.32;4.93;;;;;;;;;;4724879;29;20145;-88
2023/06/20 16:48:51;;;;;;;5.90;5.40;;;;;;;;;;4775262;29;20066;-87
2023/06/20 16:55:31;;;;;;;;;;;;;;;;;;;;;
2023/06/20 16:58:24;;;;;;;;;;;;;;;;;;;;;
2023/06/20 17:04:54;;;;;;;6.32;5.78;;;;;;;;;;4737238;29;20654;-88
2023/06/20 17:07:47;;;;;;;5.85;5.45;;;;;;;;;;4795843;29;20133;-87
2023/06/20 17:10:47;;;;;;;;;;;;;;;;;;;;;
2023/06/20 17:13:49;;;;;;;;;;;;;;;;;;;;;